Detalii statie REFDANCOM [00001D06]

Toti senzorii

Date Temperatura solului [C]Precipitatii [mm]Voltaj baterie [mV]Leaf Wetness [Min]HC Air temperature [C]HC Relative humidity [%]Punctul de roua [C]
medieminmaxsumaultimatimpmedieminmaxmediemediemin
2019-06-15 18:00:00 0 6864 31.17 26.43 33.31 0 0 0
2019-06-15 19:00:00 0 6708 25.21 24.15 26.41 0 0 0
2019-06-15 20:00:00 0 6688 23.66 22.95 24.1 0 0 0
2019-06-15 21:00:00 0 6668 23.04 22.51 23.52 0 0 0
2019-06-15 22:00:00 0 6678 22.74 22.26 23.16 0 0 0
2019-06-15 23:00:00 0 6678 21.82 20.93 22.5 0 0 0
2019-06-16 00:00:00 0 6678 20.72 20.22 21.18 0 0 0
2019-06-16 01:00:00 0 6660 19.37 19.04 19.87 0 0 0
2019-06-16 02:00:00 0 6660 18.99 18.78 19.12 0 0 0
2019-06-16 03:00:00 0 6668 19.06 18.93 19.24 0 0 0
2019-06-16 04:00:00 0 6660 18.81 18.7 19.11 0 0 0
2019-06-16 05:00:00 0 6660 18.79 18.63 19.23 0 0 0
2019-06-16 06:00:00 0 6678 20.02 19.33 21.28 0 0 0
2019-06-16 07:00:00 0 6728 22.03 21.26 23.5 0 0 0
2019-06-16 08:00:00 0 6738 24.78 24.02 25.65 0 0 0
2019-06-16 09:00:00 0 7186 26.25 25.67 26.75 0 0 0
2019-06-16 10:00:00 0 7206 28.35 26.71 29.39 0 0 0
2019-06-16 11:00:00 0 7206 30.49 30.03 31.21 0 0 0
2019-06-16 12:00:00 0 7196 32.01 30.51 33.94 0 0 0
2019-06-16 13:00:00 0 7196 32.26 31.36 32.96 0 0 0
2019-06-16 14:00:00 0 7206 32.23 31.12 33.04 0 0 0
2019-06-16 15:00:00 0 7206 33.57 33.05 34.02 0 0 0
2019-06-16 16:00:00 0 7196 60 33.13 32.82 33.43 0 0 0
2019-06-16 17:00:00 0 7206 32.98 32.3 33.82 0 0 0
2019-06-16 18:00:00 0.2 7148 31.18 24.77 33.39 0 0 0
2019-06-16 19:00:00 0 7176 25.33 24.42 26.44 0 0 0
2019-06-16 20:00:00 0 6688 25.91 24.52 26.77 0 0 0
2019-06-16 21:00:00 0 6688 23.65 22.84 24.28 0 0 0
2019-06-16 22:00:00 0 6678 22.6 22.24 22.84 0 0 0
2019-06-16 23:00:00 0 6668 21.87 21.52 22.29 0 0 0
2019-06-17 00:00:00 0 6678 20.99 20.51 21.67 0 0 0
2019-06-17 01:00:00 0 6668 20.35 20.01 20.75 0 0 0
2019-06-17 02:00:00 0 6668 20.04 19.89 20.29 0 0 0
2019-06-17 03:00:00 0 6660 19.4 19.07 19.72 0 0 0
2019-06-17 04:00:00 0 6660 19.04 18.91 19.2 0 0 0
2019-06-17 05:00:00 0 6660 18.74 18.49 18.96 0 0 0
2019-06-17 06:00:00 0 6688 19.26 18.41 20.28 0 0 0
2019-06-17 07:00:00 0 6708 21.27 20.4 22.06 0 0 0
2019-06-17 08:00:00 0 6738 22.62 21.67 24.1 0 0 0
2019-06-17 09:00:00 0 6776 25.06 23.7 26.04 0 0 0
2019-06-17 10:00:00 0 7206 26.75 26.15 27.66 0 0 0
2019-06-17 11:00:00 0 7206 30 28.64 31.42 0 0 0
2019-06-17 12:00:00 0 7206 32.3 30.32 34.13 0 0 0
2019-06-17 13:00:00 0 7196 32.39 31.58 33.43 0 0 0
2019-06-17 14:00:00 0 7206 33.99 32.88 35.17 0 0 0
2019-06-17 15:00:00 0 7206 60 34.12 32.95 34.86 0 0 0
2019-06-17 16:00:00 0 7196 34.29 33.77 34.87 0 0 0
2019-06-17 17:00:00 0 7080 31.29 29.73 34.7 0 0 0